Latest Weather Observations for Proserpine

IDQ60801

Issued at 4:05 pm EST Thursday 2 October 2014 (issued every 30 minutes, with the page automatically refreshed every 10 minutes)

About weather observations | Map of weather stations | Latest weather observations for QLD | Other Formats
Station Details ID: 033247 Name: PROSERPINE AIRPORT Lat: -20.49 Lon: 148.56 Height: 19.7 m
Data from the previous 72 hours. | See also: Recent months at Proserpine
Date/Time
EST
Temp
°C
App
Temp
°C
Dew
Point
Rel
Hum
%
Delta-T
°C
Wind Press
QNH
hPa
Press
MSL
hPa
Rain
since 9 am
mm
Dir
 
Spd
km/h
Gust
km/h
Spd
kts
Gust
kts
02/04:00pm 25.1 22.2 15.1 53 6.0 ESE 24 35 13 19 1016.2 - 0.0
02/03:30pm 26.1 24.2 15.8 53 6.3 E 20 30 11 16 1016.2 - 0.0
02/03:00pm 26.0 23.2 16.3 55 6.0 SE 26 35 14 19 1016.1 1016.0 0.0
02/02:30pm 27.3 24.9 15.3 48 7.3 ESE 22 33 12 18 1016.2 - 0.0
02/02:00pm 26.5 24.2 15.8 51 6.5 E 22 33 12 18 1016.2 - 0.0
02/01:30pm 28.6 26.5 16.2 47 7.7 E 22 32 12 17 1016.4 - 0.0
02/01:00pm 27.6 25.0 13.9 43 8.2 ESE 20 32 11 17 1016.6 - 0.0
02/12:30pm 27.6 24.4 12.0 38 9.0 ESE 20 30 11 16 1016.8 - 0.0
02/12:00pm 27.8 24.5 10.9 35 9.6 E 19 28 10 15 1016.9 1016.8 0.0
02/11:30am 27.8 24.1 9.6 32 10.1 ESE 19 24 10 13 1017.2 - 0.0
02/11:00am 28.0 26.3 12.4 38 9.1 SE 13 20 7 11 1017.6 - 0.0
02/10:30am 26.7 26.2 14.8 48 7.2 SSE 11 20 6 11 1017.7 - 0.0
02/10:00am 25.4 24.9 13.9 49 6.8 ESE 9 19 5 10 1018.1 - 0.0
02/09:30am 24.8 25.5 15.7 57 5.5 SE 6 13 3 7 1018.0 - 0.0
02/09:00am 23.3 23.7 15.4 61 4.7 E 7 13 4 7 1018.0 1018.0 0.0
02/08:30am 22.3 23.6 16.1 68 3.7 SSW 4 7 2 4 1017.9 - 0.0
02/08:00am 19.6 21.2 16.8 84 1.7 W 4 7 2 4 1017.8 - 0.0
02/07:30am 16.8 17.8 15.3 91 0.9 WNW 4 7 2 4 1017.6 - 0.0
02/07:00am 15.0 16.4 14.4 96 0.3 CALM 0 2 0 1 1017.3 - 0.0
02/06:30am 12.1 12.2 11.5 96 0.3 SW 2 6 1 3 1017.1 - 0.0
02/06:00am 10.7 10.6 9.6 93 0.6 CALM 0 0 0 0 1016.8 1016.7 0.0
02/05:30am 10.9 11.0 10.0 94 0.5 CALM 0 0 0 0 1016.6 - 0.0
02/05:20am 11.2 11.4 10.4 95 0.4 CALM 0 0 0 0 1016.5 - 0.0
02/05:00am 12.0 12.5 11.5 97 0.3 CALM 0 0 0 0 1016.4 - 0.0
02/04:59am 11.9 12.3 11.4 97 0.3 CALM 0 0 0 0 1016.3 - 0.0
02/04:30am 11.8 12.2 11.3 97 0.3 CALM 0 0 0 0 1015.9 - 0.0
02/04:00am 11.5 11.7 10.6 94 0.5 CALM 0 0 0 0 1015.8 - 0.0
02/03:30am 11.9 12.2 11.0 94 0.5 CALM 0 0 0 0 1015.8 - 0.0
02/03:00am 12.2 12.6 11.3 94 0.5 CALM 0 0 0 0 1015.8 1015.7 0.0
02/02:30am 12.4 13.0 11.8 96 0.3 CALM 0 0 0 0 1015.9 - 0.0
02/02:00am 12.5 13.0 11.7 95 0.4 CALM 0 0 0 0 1016.2 - 0.0
02/01:30am 13.3 14.1 12.5 95 0.4 CALM 0 0 0 0 1016.4 - 0.0
02/01:00am 13.4 14.3 12.9 97 0.3 CALM 0 0 0 0 1016.6 - 0.0
02/12:30am 13.9 14.9 13.1 95 0.4 CALM 0 0 0 0 1016.6 - 0.0
02/12:00am 13.8 14.6 12.5 92 0.7 SW 0 0 0 0 1016.7 1016.6 0.0
 
Date/Time
EST
Temp
°C
App
Temp
°C
Dew
Point
Rel
Hum
%
Delta-T
°C
Wind Press
QNH
hPa
Press
MSL
hPa
Rain
since 9 am
mm
Dir
 
Spd
km/h
Gust
km/h
Spd
kts
Gust
kts
01/11:30pm 14.5 15.6 13.5 94 0.6 CALM 0 0 0 0 1016.8 - 0.0
01/11:00pm 14.2 15.2 13.2 94 0.6 CALM 0 0 0 0 1016.7 - 0.0
01/10:30pm 14.6 15.6 13.3 92 0.7 CALM 0 6 0 3 1016.8 - 0.0
01/10:00pm 15.8 16.2 13.8 88 1.1 SW 4 7 2 4 1017.0 - 0.0
01/09:30pm 16.7 17.1 14.7 88 1.2 SSW 6 7 3 4 1017.1 - 0.0
01/09:00pm 16.2 16.3 13.9 86 1.3 S 6 9 3 5 1017.2 1017.1 0.0
01/08:30pm 18.3 18.7 15.2 82 1.8 SSE 7 9 4 5 1017.0 - 0.0
01/08:00pm 18.3 18.5 14.8 80 2.0 S 7 9 4 5 1016.7 - 0.0
01/07:30pm 19.0 19.4 14.7 76 2.5 SSE 6 7 3 4 1016.4 - 0.0
01/07:00pm 20.2 20.7 15.6 75 2.7 SE 7 7 4 4 1016.2 - 0.0
01/06:30pm 20.7 20.8 15.5 72 3.1 SE 9 11 5 6 1015.9 - 0.0
01/06:00pm 21.9 20.9 14.5 63 4.3 SE 13 15 7 8 1015.6 1015.5 0.0
01/05:30pm 23.8 21.6 12.1 48 6.7 SE 15 20 8 11 1015.4 - 0.0
01/05:00pm 25.2 21.8 10.6 40 8.1 ESE 19 24 10 13 1015.2 - 0.0
01/04:30pm 26.0 22.9 11.7 41 8.2 ESE 19 24 10 13 1015.2 - 0.0
01/04:00pm 26.6 23.6 10.7 37 8.9 ESE 17 24 9 13 1015.2 - 0.0
01/03:30pm 26.6 23.5 11.5 39 8.6 E 19 26 10 14 1015.3 - 0.0
01/03:00pm 27.4 24.6 11.4 37 9.1 ESE 17 24 9 13 1015.5 1015.4 0.0
01/02:30pm 27.6 24.3 10.8 35 9.5 E 19 28 10 15 1015.7 - 0.0
01/02:00pm 26.9 22.4 8.4 31 10.0 E 22 33 12 18 1016.1 - 0.0
01/01:30pm 27.4 23.0 7.3 28 10.7 E 20 32 11 17 1016.5 - 0.0
01/01:00pm 26.8 23.1 9.6 34 9.5 ESE 19 33 10 18 1017.0 - 0.0
01/12:30pm 26.9 24.4 12.2 40 8.5 E 17 28 9 15 1017.4 - 0.0
01/12:00pm 26.3 23.5 13.1 44 7.7 E 20 28 11 15 1018.0 1018.0 0.0
01/11:30am 26.1 24.2 14.2 48 7.1 SE 17 28 9 15 1018.5 - 0.0
01/11:00am 25.6 23.9 13.5 47 7.1 ESE 15 22 8 12 1019.1 - 0.0
01/10:30am 24.9 22.2 12.8 47 7.0 SE 19 32 10 17 1019.4 - 0.0
01/10:00am 25.1 22.8 13.0 47 7.0 E 17 24 9 13 1019.5 - 0.0
01/09:30am 24.6 23.1 13.2 49 6.6 SE 13 24 7 13 1019.6 - 0.0
01/09:00am 23.8 21.6 13.4 52 6.0 E 17 22 9 12 1019.7 1019.6 0.0
01/08:30am 23.8 22.9 13.6 52 5.9 SE 11 19 6 10 1019.7 - 0.0
01/08:00am 20.9 21.4 15.0 69 3.5 S 6 9 3 5 1019.7 - 0.0
01/07:30am 18.3 18.6 14.6 79 2.1 ESE 6 7 3 4 1019.5 - 0.0
01/07:00am 15.6 15.4 13.6 88 1.1 SSW 7 11 4 6 1019.0 - 0.0
01/06:30am 13.9 13.6 13.3 96 0.3 SW 7 11 4 6 1018.6 - 0.0
01/06:00am 12.3 11.5 11.7 96 0.3 SW 7 9 4 5 1018.4 1018.3 0.0
01/05:30am 12.3 11.6 11.5 95 0.4 SW 6 9 3 5 1018.4 - 0.0
01/05:00am 12.4 11.7 11.5 94 0.5 SW 6 7 3 4 1018.2 - 0.0
01/04:30am 12.9 12.1 11.8 93 0.6 SW 7 9 4 5 1018.0 - 0.0
01/04:00am 13.0 12.5 11.9 93 0.6 SSW 6 11 3 6 1017.8 - 0.0
01/03:30am 14.4 15.5 13.4 94 0.6 CALM 0 0 0 0 1017.8 - 0.0
01/03:00am 14.2 15.2 13.2 94 0.6 CALM 0 0 0 0 1017.8 1017.7 0.0
01/02:30am 14.0 14.2 13.2 95 0.4 SSW 4 7 2 4 1017.8 - 0.0
01/02:00am 13.4 12.8 12.3 93 0.6 SW 7 9 4 5 1018.2 - 0.0
01/01:30am 13.7 13.4 12.8 94 0.5 SSW 6 7 3 4 1018.6 - 0.0
01/01:00am 13.9 13.6 12.8 93 0.6 SSW 6 7 3 4 1018.8 - 0.0
01/12:30am 13.7 14.3 11.9 89 1.0 CALM 0 0 0 0 1019.1 - 0.0
01/12:00am 14.8 13.8 13.5 92 0.7 SSW 11 11 6 6 1019.2 1019.2 0.0
 
Date/Time
EST
Temp
°C
App
Temp
°C
Dew
Point
Rel
Hum
%
Delta-T
°C
Wind Press
QNH
hPa
Press
MSL
hPa
Rain
since 9 am
mm
Dir
 
Spd
km/h
Gust
km/h
Spd
kts
Gust
kts
30/11:30pm 13.9 13.4 12.8 93 0.6 SW 7 9 4 5 1019.3 - 0.0
30/11:00pm 13.8 12.9 11.5 86 1.2 SW 7 9 4 5 1019.5 - 0.0
30/10:30pm 14.7 14.5 12.9 89 1.0 WSW 6 9 3 5 1019.6 - 0.0
30/10:00pm 16.7 16.2 13.8 83 1.6 S 9 11 5 6 1019.7 - 0.0
30/09:30pm 17.6 17.1 13.7 78 2.2 ESE 9 11 5 6 1019.7 - 0.0
30/09:00pm 17.4 16.4 13.3 77 2.3 ESE 11 11 6 6 1019.4 1019.3 0.0
30/08:30pm 18.3 16.5 13.2 72 2.9 E 15 17 8 9 1019.2 - 0.0
30/08:00pm 18.9 17.2 12.6 67 3.5 E 13 15 7 8 1019.2 - 0.0
30/07:30pm 18.9 17.5 12.2 65 3.7 E 11 15 6 8 1018.7 - 0.0
30/07:00pm 19.2 18.7 12.2 64 3.9 E 6 9 3 5 1018.3 - 0.0
30/06:30pm 20.2 19.4 12.9 63 4.1 ESE 9 13 5 7 1017.9 - 0.0
30/06:00pm 21.8 20.3 13.2 58 4.9 E 13 19 7 10 1017.5 1017.4 0.0
30/05:30pm 23.1 20.1 12.4 51 6.1 E 20 26 11 14 1017.0 - 0.0
30/05:00pm 24.1 20.7 12.4 48 6.7 E 22 28 12 15 1016.8 - 0.0
30/04:30pm 24.8 21.4 11.4 43 7.6 E 20 30 11 16 1016.6 - 0.0
30/04:00pm 25.3 21.7 11.8 43 7.7 ESE 22 33 12 18 1016.5 - 0.0
30/03:30pm 25.9 22.3 10.5 38 8.6 E 20 30 11 16 1016.6 - 0.0
30/03:00pm 26.4 23.1 10.9 38 8.7 E 19 30 10 16 1016.7 1016.6 0.0
30/02:30pm 26.0 22.7 11.7 41 8.2 E 20 39 11 21 1016.9 - 0.0
30/02:00pm 26.3 22.9 12.4 42 8.0 ESE 22 30 12 16 1017.3 - 0.0
30/01:30pm 25.6 21.5 11.4 41 8.0 SE 24 37 13 20 1017.6 - 0.0
30/01:00pm 25.4 22.5 12.9 45 7.3 ESE 20 37 11 20 1018.0 - 0.0
30/12:30pm 25.9 23.3 13.1 45 7.5 ESE 19 32 10 17 1018.5 - 0.0
30/12:00pm 25.9 23.6 14.1 48 7.0 ESE 19 26 10 14 1019.0 1018.9 0.0
30/11:30am 25.2 22.8 12.8 46 7.2 ESE 17 32 9 17 1019.5 - 0.0
30/11:00am 25.3 22.0 12.9 46 7.2 SE 22 32 12 17 1020.0 - 0.0
30/10:30am 24.9 22.1 13.1 48 6.9 E 20 32 11 17 1020.5 - 0.0
30/10:00am 24.7 22.5 13.3 49 6.6 ESE 17 30 9 16 1020.8 - 0.0
30/09:30am 25.4 23.4 13.9 49 6.8 ESE 17 32 9 17 1021.0 - 0.0
30/09:00am 23.6 21.4 13.2 52 6.0 SE 17 28 9 15 1021.0 1020.8 0.0
30/08:30am 23.2 22.4 13.9 56 5.4 SE 11 20 6 11 1021.0 - 0.0
30/08:00am 21.9 21.3 14.5 63 4.3 SSE 11 15 6 8 1020.7 - 0.0
30/07:30am 19.4 19.4 14.2 72 3.0 S 7 9 4 5 1020.5 - 0.0
30/07:00am 16.9 17.3 13.8 82 1.8 SSW 4 7 2 4 1020.2 - 0.0
30/06:30am 14.7 14.9 13.1 90 0.9 SE 4 9 2 5 1019.9 - 0.0
30/06:00am 14.0 13.7 12.7 92 0.7 SSW 6 9 3 5 1019.3 1019.2 0.0
30/05:30am 13.9 12.9 12.3 90 0.9 SW 9 11 5 6 1019.1 - 0.0
30/05:00am 15.0 13.5 13.0 88 1.1 S 13 15 7 8 1018.7 - 0.0
30/04:30am 16.4 14.7 13.7 84 1.5 SSE 15 19 8 10 1018.4 - 0.0
30/04:00am 14.9 14.0 13.6 92 0.7 S 11 13 6 7 1018.3 - 0.0
30/03:30am 15.2 14.4 14.1 93 0.6 SSW 11 11 6 6 1018.4 - 0.0
30/03:00am 15.6 14.6 14.5 93 0.6 SSW 13 13 7 7 1018.4 1018.4 0.0
30/02:30am 15.5 14.8 14.2 92 0.7 SSW 11 13 6 7 1018.5 - 0.0
30/02:00am 16.1 15.9 14.6 91 0.9 SSW 9 11 5 6 1018.7 - 0.0
30/01:30am 16.3 16.0 14.5 89 1.0 SSW 9 11 5 6 1018.9 - 0.0
30/01:00am 17.0 16.9 15.0 88 1.2 S 9 15 5 8 1019.1 - 0.0
30/12:30am 17.3 17.3 15.1 87 1.3 S 9 13 5 7 1019.3 - 0.0
30/12:00am 18.2 18.0 15.6 85 1.5 S 11 13 6 7 1019.6 1019.5 0.0
 
Date/Time
EST
Temp
°C
App
Temp
°C
Dew
Point
Rel
Hum
%
Delta-T
°C
Wind Press
QNH
hPa
Press
MSL
hPa
Rain
since 9 am
mm
Dir
 
Spd
km/h
Gust
km/h
Spd
kts
Gust
kts
29/11:30pm 18.4 18.2 15.6 84 1.7 S 11 13 6 7 1019.8 - 0.0
29/11:00pm 18.2 18.0 15.8 86 1.4 S 11 13 6 7 1019.8 - 0.0
29/10:30pm 17.4 17.2 15.7 90 1.0 SSW 11 13 6 7 1019.8 - 0.0
29/10:00pm 17.7 17.3 15.3 86 1.4 S 11 13 6 7 1019.9 - 0.0
29/09:30pm 17.6 18.0 15.2 86 1.4 S 7 9 4 5 1019.9 - 0.0
29/09:00pm 18.0 18.1 15.4 85 1.5 S 9 11 5 6 1019.7 1019.6 0.0
29/08:30pm 18.7 19.1 15.4 81 1.9 S 7 11 4 6 1019.5 - 0.0
29/08:00pm 19.1 19.2 15.4 79 2.2 SE 9 11 5 6 1019.1 - 0.0
29/07:30pm 19.2 18.8 15.1 77 2.4 ESE 11 13 6 7 1018.7 - 0.0
29/07:00pm 20.0 20.0 15.2 74 2.8 SE 9 11 5 6 1018.3 - 0.0
29/06:30pm 20.5 20.7 15.7 74 2.9 ESE 9 13 5 7 1018.0 - 0.0
29/06:00pm 21.8 21.3 15.9 69 3.5 E 13 20 7 11 1017.5 1017.4 0.0
29/05:30pm 22.6 20.9 15.7 65 4.1 E 19 26 10 14 1017.2 - 0.0
29/05:00pm 24.0 22.1 15.2 58 5.3 ESE 19 28 10 15 1016.9 - 0.0
29/04:30pm 24.2 21.9 14.6 55 5.7 E 20 28 11 15 1016.6 - 0.0

Other Formats:

Comma delimited format used in spreadsheet applications
http://www.bom.gov.au/fwo/IDQ60801/IDQ60801.94365.axf

JavaScript Object Notation format (JSON) in row-major order
http://www.bom.gov.au/fwo/IDQ60801/IDQ60801.94365.json